Time;durP1;ratioP1;P1;durP2;ratioP2;P2;SDS_P1;SDS_P2;PMS_P1;PMS_P2;Temp;Humidity;BMP_temperature;BMP_pressure;BME280_temperature;BME280_humidity;BME280_pressure;Samples;Min_cycle;Max_cycle;Signal;HPM_P1;HPM_P2
2023/03/20 00:01:18;;;;;;;16.25;9.23;;;;;;;;;;4959198;28;20218;-62
2023/03/20 00:03:44;;;;;;;17.33;9.02;;;;;;;;;;4956350;28;20288;-62
2023/03/20 00:06:14;;;;;;;18.60;9.15;;;;;;;;;;4955079;28;20841;-62
2023/03/20 00:08:40;;;;;;;17.73;9.20;;;;;;;;;;4959447;28;20261;-62
2023/03/20 00:11:05;;;;;;;15.02;8.80;;;;;;;;;;4961074;28;20218;-62
2023/03/20 00:13:30;;;;;;;16.70;9.00;;;;;;;;;;4963114;28;20221;-62
2023/03/20 00:15:56;;;;;;;17.70;9.82;;;;;;;;;;4948402;28;20223;-62
2023/03/20 00:18:21;;;;;;;17.75;10.75;;;;;;;;;;4944055;28;20298;-62
2023/03/20 00:20:47;;;;;;;19.25;10.35;;;;;;;;;;4944102;28;20281;-62
2023/03/20 00:23:13;;;;;;;17.85;11.07;;;;;;;;;;4941313;28;20277;-62
2023/03/20 00:25:38;;;;;;;19.63;10.40;;;;;;;;;;4937437;28;20267;-62
2023/03/20 00:28:31;;;;;;;19.58;11.60;;;;;;;;;;4918231;28;20218;-62
2023/03/20 00:30:56;;;;;;;20.58;10.85;;;;;;;;;;4945691;28;20321;-62
2023/03/20 00:33:22;;;;;;;18.05;10.57;;;;;;;;;;4961295;28;20226;-62
2023/03/20 00:35:47;;;;;;;16.98;10.35;;;;;;;;;;4963157;28;20589;-62
2023/03/20 00:38:13;;;;;;;19.38;11.02;;;;;;;;;;4958741;28;20230;-62
2023/03/20 00:40:38;;;;;;;18.38;11.18;;;;;;;;;;4943324;28;20226;-62
2023/03/20 00:43:03;;;;;;;22.15;11.13;;;;;;;;;;4943416;28;20222;-62
2023/03/20 00:45:29;;;;;;;19.52;11.32;;;;;;;;;;4942742;28;20218;-62
2023/03/20 00:47:56;;;;;;;18.77;11.63;;;;;;;;;;4918954;28;20590;-62
2023/03/20 00:50:22;;;;;;;18.60;11.82;;;;;;;;;;4935817;28;20433;-62
2023/03/20 00:52:47;;;;;;;20.55;11.65;;;;;;;;;;4937936;28;20663;-62
2023/03/20 00:55:13;;;;;;;19.42;10.93;;;;;;;;;;4942818;28;20236;-62
2023/03/20 00:57:41;;;;;;;16.50;10.38;;;;;;;;;;4943859;28;20234;-61
2023/03/20 01:00:07;;;;;;;19.90;11.18;;;;;;;;;;4944405;28;20249;-62
2023/03/20 01:02:32;;;;;;;17.25;10.63;;;;;;;;;;4944418;28;20202;-62
2023/03/20 01:04:58;;;;;;;17.80;11.20;;;;;;;;;;4962618;28;20276;-62
2023/03/20 01:07:23;;;;;;;19.15;11.75;;;;;;;;;;4961865;28;20629;-62
2023/03/20 01:09:48;;;;;;;15.75;10.35;;;;;;;;;;4938552;28;20222;-62
2023/03/20 01:12:13;;;;;;;19.27;11.02;;;;;;;;;;4934978;28;20226;-62
2023/03/20 01:14:39;;;;;;;18.50;11.40;;;;;;;;;;4936828;28;20230;-62
2023/03/20 01:17:04;;;;;;;18.50;11.63;;;;;;;;;;4941428;28;20218;-62
2023/03/20 01:19:29;;;;;;;20.85;12.43;;;;;;;;;;4926078;28;20336;-62
2023/03/20 01:21:55;;;;;;;18.25;11.05;;;;;;;;;;4943445;28;20226;-62
2023/03/20 01:24:20;;;;;;;19.98;12.10;;;;;;;;;;4942394;28;20787;-62
2023/03/20 01:26:46;;;;;;;20.67;12.00;;;;;;;;;;4926135;28;20225;-62
2023/03/20 01:29:16;;;;;;;17.90;12.20;;;;;;;;;;4942638;28;20254;-62
2023/03/20 01:31:41;;;;;;;20.27;13.50;;;;;;;;;;4938191;28;20238;-62
2023/03/20 01:34:09;;;;;;;21.10;13.05;;;;;;;;;;4954051;28;20214;-62
2023/03/20 01:36:34;;;;;;;21.38;13.50;;;;;;;;;;4960521;28;20296;-62
2023/03/20 01:38:59;;;;;;;22.17;15.15;;;;;;;;;;4964284;28;20350;-62
2023/03/20 01:41:25;;;;;;;23.08;15.00;;;;;;;;;;4935068;29;20210;-62
2023/03/20 01:43:50;;;;;;;20.85;15.23;;;;;;;;;;4951603;28;20468;-62
2023/03/20 01:46:17;;;;;;;27.00;15.90;;;;;;;;;;4951448;29;20305;-62
2023/03/20 01:48:51;;;;;;;24.40;15.38;;;;;;;;;;4952595;29;20698;-62
2023/03/20 01:51:18;;;;;;;25.67;17.13;;;;;;;;;;4953386;29;20218;-62
2023/03/20 01:53:44;;;;;;;25.45;16.50;;;;;;;;;;4954677;29;20211;-62
2023/03/20 01:56:09;;;;;;;24.42;15.93;;;;;;;;;;4954228;29;20224;-62
2023/03/20 01:58:36;;;;;;;25.38;15.88;;;;;;;;;;4953304;29;20215;-62
2023/03/20 02:01:02;;;;;;;26.67;15.27;;;;;;;;;;4936674;29;20232;-61
2023/03/20 02:03:27;;;;;;;22.80;13.32;;;;;;;;;;4937320;29;20207;-62
2023/03/20 02:05:52;;;;;;;23.80;13.25;;;;;;;;;;4953894;29;20761;-61
2023/03/20 02:08:18;;;;;;;21.38;13.50;;;;;;;;;;4938988;28;20451;-62
2023/03/20 02:10:45;;;;;;;22.67;13.32;;;;;;;;;;4940338;28;20598;-62
2023/03/20 02:13:10;;;;;;;20.90;11.13;;;;;;;;;;4943101;28;20630;-62
2023/03/20 02:15:35;;;;;;;18.42;11.15;;;;;;;;;;4950449;28;20222;-62
2023/03/20 02:18:01;;;;;;;23.05;11.88;;;;;;;;;;4944213;28;20226;-62
2023/03/20 02:20:30;;;;;;;20.70;10.52;;;;;;;;;;4926567;28;20207;-62
2023/03/20 02:23:01;;;;;;;20.23;11.80;;;;;;;;;;4945812;28;20285;-62
2023/03/20 02:25:45;;;;;;;21.65;11.52;;;;;;;;;;4961210;28;20212;-62
2023/03/20 02:28:36;;;;;;;23.05;11.20;;;;;;;;;;4936378;28;20230;-62
2023/03/20 02:31:02;;;;;;;23.27;11.57;;;;;;;;;;4923032;28;20234;-62
2023/03/20 02:33:36;;;;;;;19.13;11.50;;;;;;;;;;4958268;28;20800;-62
2023/03/20 02:36:02;;;;;;;20.20;11.15;;;;;;;;;;4926729;28;20222;-62
2023/03/20 02:38:27;;;;;;;22.85;12.13;;;;;;;;;;4955070;28;20727;-62
2023/03/20 02:40:52;;;;;;;17.83;9.68;;;;;;;;;;4943072;28;20218;-62
2023/03/20 02:43:19;;;;;;;17.55;8.77;;;;;;;;;;4943593;28;20269;-62
2023/03/20 02:45:49;;;;;;;17.70;9.32;;;;;;;;;;4926793;28;20856;-62
2023/03/20 02:48:19;;;;;;;17.48;9.10;;;;;;;;;;4959176;28;20229;-62
2023/03/20 02:50:49;;;;;;;17.20;9.00;;;;;;;;;;4937779;28;20288;-62
2023/03/20 02:53:15;;;;;;;19.48;8.57;;;;;;;;;;4917988;28;20769;-62
2023/03/20 02:55:44;;;;;;;13.60;7.88;;;;;;;;;;4957435;28;20597;-62
2023/03/20 02:58:11;;;;;;;12.77;6.75;;;;;;;;;;4949191;28;20217;-62
2023/03/20 03:00:38;;;;;;;13.15;6.10;;;;;;;;;;4949203;28;20241;-62
2023/03/20 03:03:14;;;;;;;11.80;5.53;;;;;;;;;;4948450;28;20202;-62
2023/03/20 03:05:44;;;;;;;12.77;4.82;;;;;;;;;;4949336;28;20301;-62
2023/03/20 03:08:12;;;;;;;9.55;4.75;;;;;;;;;;4965443;28;20225;-62
2023/03/20 03:10:39;;;;;;;8.57;3.88;;;;;;;;;;4941174;28;20218;-63
2023/03/20 03:13:05;;;;;;;7.13;3.47;;;;;;;;;;4922026;28;20226;-62
2023/03/20 03:15:31;;;;;;;6.15;3.20;;;;;;;;;;4921595;28;20238;-63
2023/03/20 03:17:57;;;;;;;6.85;3.38;;;;;;;;;;4924156;28;20796;-63
2023/03/20 03:20:23;;;;;;;6.38;3.03;;;;;;;;;;4946445;28;20218;-63
2023/03/20 03:22:49;;;;;;;7.15;2.72;;;;;;;;;;4929816;28;20237;-62
2023/03/20 03:25:14;;;;;;;7.68;2.95;;;;;;;;;;4946777;28;20257;-62
2023/03/20 03:27:40;;;;;;;6.60;2.88;;;;;;;;;;4947858;28;20551;-62
2023/03/20 03:30:07;;;;;;;8.75;3.30;;;;;;;;;;4942678;29;20222;-63
2023/03/20 03:32:33;;;;;;;6.85;3.03;;;;;;;;;;4938012;29;20222;-63
2023/03/20 03:34:58;;;;;;;9.73;3.20;;;;;;;;;;4939993;29;20202;-63
2023/03/20 03:37:27;;;;;;;11.25;4.20;;;;;;;;;;4938652;29;20561;-62
2023/03/20 03:39:58;;;;;;;9.43;3.90;;;;;;;;;;4950438;29;20221;-62
2023/03/20 03:42:27;;;;;;;6.95;3.80;;;;;;;;;;4955261;28;20558;-62
2023/03/20 03:44:53;;;;;;;10.82;3.65;;;;;;;;;;4954809;29;20290;-62
2023/03/20 03:47:19;;;;;;;8.52;4.15;;;;;;;;;;4956312;28;20218;-63
2023/03/20 03:49:47;;;;;;;8.75;3.97;;;;;;;;;;4955594;29;20355;-63
2023/03/20 03:52:14;;;;;;;9.85;4.88;;;;;;;;;;4954357;28;20361;-62
2023/03/20 03:54:47;;;;;;;8.80;4.57;;;;;;;;;;4956929;28;20211;-62
2023/03/20 03:57:13;;;;;;;9.50;4.40;;;;;;;;;;4954432;28;20301;-62
2023/03/20 03:59:40;;;;;;;11.48;5.50;;;;;;;;;;4939301;29;20257;-63
2023/03/20 04:02:07;;;;;;;12.10;5.47;;;;;;;;;;4954639;28;20225;-63
2023/03/20 04:04:32;;;;;;;11.48;5.53;;;;;;;;;;4954757;29;20218;-62
2023/03/20 04:06:57;;;;;;;11.18;5.75;;;;;;;;;;4955177;28;20206;-62
2023/03/20 04:09:23;;;;;;;13.65;5.93;;;;;;;;;;4955208;28;20210;-62
2023/03/20 04:11:49;;;;;;;13.13;6.00;;;;;;;;;;4971485;28;20225;-62
2023/03/20 04:14:14;;;;;;;12.55;6.32;;;;;;;;;;4973111;28;20225;-62
2023/03/20 04:16:40;;;;;;;11.32;6.28;;;;;;;;;;4972360;28;20214;-62
2023/03/20 04:19:05;;;;;;;14.20;6.18;;;;;;;;;;4974221;28;20682;-62
2023/03/20 04:21:30;;;;;;;13.93;6.65;;;;;;;;;;4975441;28;20712;-62
2023/03/20 04:23:56;;;;;;;12.98;6.03;;;;;;;;;;4975675;28;20673;-62
2023/03/20 04:26:22;;;;;;;12.75;6.63;;;;;;;;;;4969218;28;20245;-62
2023/03/20 04:28:47;;;;;;;15.02;6.50;;;;;;;;;;4956123;29;20245;-62
2023/03/20 04:31:13;;;;;;;13.38;6.68;;;;;;;;;;4962635;28;20250;-62
2023/03/20 04:33:38;;;;;;;11.13;5.93;;;;;;;;;;4955080;28;20218;-63
2023/03/20 04:36:03;;;;;;;12.80;6.97;;;;;;;;;;4964846;28;20696;-62
2023/03/20 04:38:29;;;;;;;19.92;9.27;;;;;;;;;;4968039;28;20217;-62
2023/03/20 04:40:54;;;;;;;19.58;8.27;;;;;;;;;;4955110;28;20697;-62
2023/03/20 04:43:19;;;;;;;17.98;9.05;;;;;;;;;;4956456;28;20392;-62
2023/03/20 04:45:45;;;;;;;19.67;10.43;;;;;;;;;;4955750;29;20484;-62
2023/03/20 04:48:10;;;;;;;19.10;10.98;;;;;;;;;;4956138;28;20278;-63
2023/03/20 04:50:35;;;;;;;20.35;11.40;;;;;;;;;;4947594;28;20267;-63
2023/03/20 04:53:00;;;;;;;22.58;12.00;;;;;;;;;;4937010;28;20585;-62
2023/03/20 04:55:26;;;;;;;20.92;11.32;;;;;;;;;;4937040;28;20305;-63
2023/03/20 04:57:51;;;;;;;23.05;12.52;;;;;;;;;;4942946;28;20221;-63
2023/03/20 05:00:17;;;;;;;22.00;12.15;;;;;;;;;;4945653;28;20718;-63
2023/03/20 05:02:42;;;;;;;24.90;12.68;;;;;;;;;;4944584;28;20222;-62
2023/03/20 05:05:08;;;;;;;22.00;12.63;;;;;;;;;;4945474;28;20219;-62
2023/03/20 05:07:33;;;;;;;21.40;12.52;;;;;;;;;;4944608;28;20237;-62
2023/03/20 05:09:58;;;;;;;26.25;13.45;;;;;;;;;;4964276;28;20237;-62
2023/03/20 05:12:26;;;;;;;27.17;14.20;;;;;;;;;;4960802;28;20248;-62
2023/03/20 05:14:51;;;;;;;23.90;13.73;;;;;;;;;;4956170;28;20600;-62
2023/03/20 05:17:18;;;;;;;24.10;13.50;;;;;;;;;;4955879;28;20716;-62
2023/03/20 05:19:44;;;;;;;26.83;14.63;;;;;;;;;;4941403;28;20218;-63
2023/03/20 05:22:09;;;;;;;25.85;14.32;;;;;;;;;;4963047;28;20677;-63
2023/03/20 05:24:34;;;;;;;28.83;14.95;;;;;;;;;;4951536;28;20694;-62
2023/03/20 05:27:00;;;;;;;23.02;13.95;;;;;;;;;;4945535;28;20210;-62
2023/03/20 05:29:25;;;;;;;26.88;14.98;;;;;;;;;;4944507;28;20211;-62
2023/03/20 05:31:50;;;;;;;25.42;14.50;;;;;;;;;;4947364;28;20238;-62
2023/03/20 05:34:16;;;;;;;27.77;14.35;;;;;;;;;;4943968;28;20481;-62
2023/03/20 05:36:41;;;;;;;26.88;15.25;;;;;;;;;;4936740;28;20223;-62
2023/03/20 05:39:06;;;;;;;24.25;13.52;;;;;;;;;;4936679;28;20706;-63
2023/03/20 05:41:31;;;;;;;25.50;13.00;;;;;;;;;;4937617;28;20226;-63
2023/03/20 05:43:57;;;;;;;25.02;13.23;;;;;;;;;;4944527;28;21045;-64
2023/03/20 05:46:22;;;;;;;23.83;11.73;;;;;;;;;;4944534;28;20687;-64
2023/03/20 05:48:47;;;;;;;22.50;11.38;;;;;;;;;;4945058;28;20278;-64
2023/03/20 05:51:13;;;;;;;21.50;11.15;;;;;;;;;;4926256;28;20230;-63
2023/03/20 05:53:38;;;;;;;18.23;10.65;;;;;;;;;;4944909;28;20720;-63
2023/03/20 05:56:03;;;;;;;18.52;10.43;;;;;;;;;;4944545;28;20398;-63
2023/03/20 05:58:29;;;;;;;20.05;10.18;;;;;;;;;;4940057;28;20618;-64
2023/03/20 06:00:55;;;;;;;20.10;10.77;;;;;;;;;;4959716;28;20214;-63
2023/03/20 06:03:20;;;;;;;21.67;13.10;;;;;;;;;;4969031;28;20930;-62
2023/03/20 06:05:46;;;;;;;23.40;11.37;;;;;;;;;;4940066;28;20428;-62
2023/03/20 06:08:11;;;;;;;21.33;10.48;;;;;;;;;;4958808;28;20264;-62
2023/03/20 06:10:36;;;;;;;20.30;10.20;;;;;;;;;;4963596;28;20225;-62
2023/03/20 06:13:02;;;;;;;16.05;9.98;;;;;;;;;;4961615;28;20222;-62
2023/03/20 06:15:27;;;;;;;18.48;9.55;;;;;;;;;;4964281;28;20216;-63
2023/03/20 06:17:53;;;;;;;15.30;9.10;;;;;;;;;;4952737;28;20232;-63
2023/03/20 06:20:18;;;;;;;21.15;10.18;;;;;;;;;;4962564;28;20212;-63
2023/03/20 06:22:44;;;;;;;17.90;9.05;;;;;;;;;;4964459;28;20225;-63
2023/03/20 06:25:09;;;;;;;17.60;9.18;;;;;;;;;;4961056;28;20753;-62
2023/03/20 06:27:35;;;;;;;17.58;8.65;;;;;;;;;;4963764;28;20680;-62
2023/03/20 06:30:00;;;;;;;20.80;9.20;;;;;;;;;;4962522;28;20253;-62
2023/03/20 06:32:25;;;;;;;18.40;8.77;;;;;;;;;;4966656;28;20226;-63
2023/03/20 06:34:51;;;;;;;17.50;9.10;;;;;;;;;;4968027;28;20212;-63
2023/03/20 06:37:16;;;;;;;20.38;9.38;;;;;;;;;;4965733;28;20305;-63
2023/03/20 06:39:41;;;;;;;18.55;9.55;;;;;;;;;;4967705;28;20724;-63
2023/03/20 06:42:07;;;;;;;19.23;10.03;;;;;;;;;;4966983;28;20480;-62
2023/03/20 06:44:32;;;;;;;21.10;12.00;;;;;;;;;;4970184;28;20432;-63
2023/03/20 06:46:57;;;;;;;20.30;10.60;;;;;;;;;;4965369;28;20458;-63
2023/03/20 06:49:23;;;;;;;24.58;10.02;;;;;;;;;;4967107;28;20572;-63
2023/03/20 06:51:48;;;;;;;16.33;8.88;;;;;;;;;;4966956;28;20237;-63
2023/03/20 06:54:13;;;;;;;18.42;9.52;;;;;;;;;;4959380;28;20214;-63
2023/03/20 06:56:39;;;;;;;21.90;10.02;;;;;;;;;;4960355;28;20240;-62
2023/03/20 06:59:04;;;;;;;20.63;9.77;;;;;;;;;;4962001;28;20264;-64
2023/03/20 07:01:29;;;;;;;20.45;9.13;;;;;;;;;;4968491;28;20205;-62
2023/03/20 07:03:55;;;;;;;20.67;9.63;;;;;;;;;;4964014;28;20253;-62
2023/03/20 07:06:20;;;;;;;16.27;9.73;;;;;;;;;;4956982;29;20227;-62
2023/03/20 07:08:45;;;;;;;18.63;9.55;;;;;;;;;;4957325;28;20295;-62
2023/03/20 07:11:11;;;;;;;19.75;9.10;;;;;;;;;;4960374;28;20224;-62
2023/03/20 07:13:36;;;;;;;18.88;8.27;;;;;;;;;;4957437;29;20250;-62
2023/03/20 07:16:02;;;;;;;22.42;9.90;;;;;;;;;;4956174;29;20802;-62
2023/03/20 07:18:27;;;;;;;18.45;9.45;;;;;;;;;;4957502;29;20741;-61
2023/03/20 07:20:53;;;;;;;17.50;8.80;;;;;;;;;;4939920;29;20210;-62
2023/03/20 07:23:18;;;;;;;16.38;9.13;;;;;;;;;;4938982;29;20225;-62
2023/03/20 07:25:44;;;;;;;17.50;8.63;;;;;;;;;;4957179;29;20677;-62
2023/03/20 07:28:09;;;;;;;16.20;8.30;;;;;;;;;;4955869;29;20226;-62
2023/03/20 07:30:35;;;;;;;17.02;8.50;;;;;;;;;;4967662;28;20221;-62
2023/03/20 07:33:00;;;;;;;17.27;9.43;;;;;;;;;;4975900;28;20320;-62
2023/03/20 07:35:25;;;;;;;17.35;8.55;;;;;;;;;;4975520;28;20220;-62
2023/03/20 07:37:51;;;;;;;18.25;9.50;;;;;;;;;;4968793;28;20663;-62
2023/03/20 07:40:16;;;;;;;18.15;9.10;;;;;;;;;;4956424;28;20250;-62
2023/03/20 07:42:41;;;;;;;15.63;8.52;;;;;;;;;;4956096;28;20604;-62
2023/03/20 07:45:08;;;;;;;13.05;4.78;;;;;;;;;;4956560;28;20226;-62
2023/03/20 07:47:33;;;;;;;12.52;6.10;;;;;;;;;;4955649;29;20266;-62
2023/03/20 07:49:58;;;;;;;17.52;7.78;;;;;;;;;;4955980;28;20207;-62
2023/03/20 07:52:24;;;;;;;15.35;7.95;;;;;;;;;;4956077;28;20566;-62
2023/03/20 07:54:49;;;;;;;15.63;8.15;;;;;;;;;;4956887;28;20217;-62
2023/03/20 07:57:15;;;;;;;16.50;7.97;;;;;;;;;;4955349;28;20214;-62
2023/03/20 07:59:40;;;;;;;14.68;8.02;;;;;;;;;;4956757;28;20210;-62
2023/03/20 08:02:06;;;;;;;16.27;8.25;;;;;;;;;;4955980;28;20214;-62
2023/03/20 08:04:31;;;;;;;15.07;7.53;;;;;;;;;;4956063;28;20639;-62
2023/03/20 08:06:56;;;;;;;17.60;7.70;;;;;;;;;;4975517;28;20744;-62
2023/03/20 08:09:22;;;;;;;20.33;8.27;;;;;;;;;;4975112;28;20240;-62
2023/03/20 08:11:47;;;;;;;16.80;7.88;;;;;;;;;;4961562;28;20753;-62
2023/03/20 08:14:12;;;;;;;14.95;7.93;;;;;;;;;;4955922;28;20261;-62
2023/03/20 08:16:37;;;;;;;18.38;8.57;;;;;;;;;;4956579;28;20218;-62
2023/03/20 08:19:04;;;;;;;15.15;7.80;;;;;;;;;;4955169;28;20748;-62
2023/03/20 08:21:29;;;;;;;16.20;7.80;;;;;;;;;;4955993;28;20221;-62
2023/03/20 08:23:55;;;;;;;16.85;7.55;;;;;;;;;;4956111;28;20214;-62
2023/03/20 08:26:20;;;;;;;16.65;7.50;;;;;;;;;;4954827;28;20266;-62
2023/03/20 08:28:45;;;;;;;16.73;7.45;;;;;;;;;;4956153;29;20289;-62
2023/03/20 08:31:11;;;;;;;16.00;7.70;;;;;;;;;;4970309;28;20262;-62
2023/03/20 08:33:36;;;;;;;15.90;7.35;;;;;;;;;;4948993;28;20230;-62
2023/03/20 08:36:01;;;;;;;15.40;7.47;;;;;;;;;;4960676;28;20206;-62
2023/03/20 08:38:27;;;;;;;17.73;7.40;;;;;;;;;;4960328;28;20206;-62
2023/03/20 08:40:53;;;;;;;18.80;6.80;;;;;;;;;;4964447;28;20213;-62
2023/03/20 08:43:19;;;;;;;15.88;6.75;;;;;;;;;;4966975;28;20225;-62
2023/03/20 08:45:44;;;;;;;6.28;3.08;;;;;;;;;;4971613;28;20217;-62
2023/03/20 08:48:10;;;;;;;17.67;7.25;;;;;;;;;;4974507;28;20613;-62
2023/03/20 08:50:35;;;;;;;18.65;7.70;;;;;;;;;;4974645;28;20685;-62
2023/03/20 08:53:01;;;;;;;16.60;6.50;;;;;;;;;;4961371;28;20254;-63
2023/03/20 08:55:26;;;;;;;14.00;6.35;;;;;;;;;;4959994;28;20210;-61
2023/03/20 08:57:53;;;;;;;13.20;6.43;;;;;;;;;;4949075;28;20261;-62
2023/03/20 09:00:19;;;;;;;15.07;7.38;;;;;;;;;;4965732;28;20211;-62
2023/03/20 09:02:44;;;;;;;17.30;7.82;;;;;;;;;;4961175;28;20339;-62
2023/03/20 09:05:10;;;;;;;17.00;6.80;;;;;;;;;;4954545;29;20587;-62
2023/03/20 09:07:35;;;;;;;14.85;7.05;;;;;;;;;;4954057;29;20301;-62
2023/03/20 09:10:01;;;;;;;15.93;6.75;;;;;;;;;;4954724;29;20215;-63
2023/03/20 09:12:26;;;;;;;15.25;6.53;;;;;;;;;;4958556;28;20230;-63
2023/03/20 09:14:52;;;;;;;15.70;7.00;;;;;;;;;;4954558;29;20211;-62
2023/03/20 09:17:17;;;;;;;13.82;5.93;;;;;;;;;;4954702;29;20678;-63
2023/03/20 09:19:43;;;;;;;13.18;6.32;;;;;;;;;;4955098;29;20211;-63
2023/03/20 09:22:12;;;;;;;13.18;6.18;;;;;;;;;;4953325;29;20215;-63
2023/03/20 09:24:37;;;;;;;18.20;6.85;;;;;;;;;;4937797;29;20237;-63
2023/03/20 09:27:03;;;;;;;14.65;6.60;;;;;;;;;;4964779;28;20556;-63
2023/03/20 09:29:28;;;;;;;16.00;5.97;;;;;;;;;;4971353;28;20352;-63
2023/03/20 09:31:53;;;;;;;16.98;6.80;;;;;;;;;;4954528;29;20234;-63
2023/03/20 09:34:19;;;;;;;15.73;6.35;;;;;;;;;;4954436;29;20238;-63
2023/03/20 09:36:44;;;;;;;14.70;6.10;;;;;;;;;;4953948;29;20706;-63
2023/03/20 09:39:09;;;;;;;14.40;6.03;;;;;;;;;;4962017;28;20555;-63
2023/03/20 09:41:36;;;;;;;12.52;5.32;;;;;;;;;;4973800;28;20238;-63
2023/03/20 09:44:06;;;;;;;13.25;5.38;;;;;;;;;;4955679;28;20711;-63
2023/03/20 09:46:48;;;;;;;11.30;5.00;;;;;;;;;;4956787;28;20276;-63
2023/03/20 09:49:27;;;;;;;14.02;5.55;;;;;;;;;;4972529;28;20584;-63
2023/03/20 09:51:54;;;;;;;15.65;5.70;;;;;;;;;;4973327;28;20237;-63
2023/03/20 09:54:35;;;;;;;15.00;5.60;;;;;;;;;;4973072;28;20300;-63
2023/03/20 09:57:00;;;;;;;11.80;4.68;;;;;;;;;;4973139;28;20214;-63
2023/03/20 09:59:25;;;;;;;16.15;4.40;;;;;;;;;;4956288;28;20210;-63
2023/03/20 10:01:52;;;;;;;12.70;4.25;;;;;;;;;;4973593;28;20228;-63
2023/03/20 10:04:17;;;;;;;12.40;4.40;;;;;;;;;;4972447;28;20210;-63
2023/03/20 10:06:42;;;;;;;10.43;4.22;;;;;;;;;;4972690;28;20301;-63
2023/03/20 10:09:16;;;;;;;16.27;7.45;;;;;;;;;;4972933;28;20214;-64
2023/03/20 10:11:49;;;;;;;30.58;19.92;;;;;;;;;;4942856;29;20210;-63
2023/03/20 10:14:20;;;;;;;23.67;13.32;;;;;;;;;;4953954;28;20218;-62
2023/03/20 10:16:59;;;;;;;17.80;10.70;;;;;;;;;;4937472;29;20277;-62
2023/03/20 10:19:28;;;;;;;11.40;5.03;;;;;;;;;;4951985;28;20222;-62
2023/03/20 10:22:01;;;;;;;11.73;4.85;;;;;;;;;;4934873;29;20237;-62
2023/03/20 10:24:28;;;;;;;13.18;4.55;;;;;;;;;;4950908;28;20744;-62
2023/03/20 10:26:54;;;;;;;11.07;5.03;;;;;;;;;;4951937;28;20207;-62
2023/03/20 10:29:39;;;;;;;15.32;5.78;;;;;;;;;;4934985;28;20218;-62
2023/03/20 10:32:11;;;;;;;14.32;5.38;;;;;;;;;;4952844;28;20241;-62
2023/03/20 10:34:37;;;;;;;11.75;5.15;;;;;;;;;;4971347;28;20209;-62
2023/03/20 10:37:09;;;;;;;16.02;6.38;;;;;;;;;;4970543;28;20214;-62
2023/03/20 10:39:45;;;;;;;10.93;4.97;;;;;;;;;;4941373;29;20595;-62
2023/03/20 10:42:13;;;;;;;14.73;4.68;;;;;;;;;;4951456;29;20612;-62
2023/03/20 10:44:39;;;;;;;12.70;5.30;;;;;;;;;;4935037;29;20233;-62
2023/03/20 10:47:05;;;;;;;12.77;5.05;;;;;;;;;;4933666;29;20625;-62
2023/03/20 10:49:31;;;;;;;11.95;4.93;;;;;;;;;;4951624;29;20891;-62
2023/03/20 10:51:58;;;;;;;16.70;5.32;;;;;;;;;;4951516;29;20222;-62
2023/03/20 10:54:30;;;;;;;14.20;5.53;;;;;;;;;;4933112;29;20674;-62
2023/03/20 10:56:56;;;;;;;9.30;4.63;;;;;;;;;;4951739;29;20225;-62
2023/03/20 10:59:23;;;;;;;10.70;4.18;;;;;;;;;;4917706;29;20210;-62
2023/03/20 11:01:48;;;;;;;10.52;4.90;;;;;;;;;;4934713;29;20686;-62
2023/03/20 11:04:13;;;;;;;9.55;3.72;;;;;;;;;;4951304;29;20214;-62
2023/03/20 11:06:41;;;;;;;13.80;5.05;;;;;;;;;;4951269;29;20230;-62
2023/03/20 11:09:10;;;;;;;12.40;4.35;;;;;;;;;;4951276;29;20258;-62
2023/03/20 11:11:38;;;;;;;9.48;3.75;;;;;;;;;;4954949;28;20213;-62
2023/03/20 11:14:09;;;;;;;10.93;4.20;;;;;;;;;;4950720;29;20269;-62
2023/03/20 11:16:35;;;;;;;12.27;4.55;;;;;;;;;;4951748;28;20209;-62
2023/03/20 11:19:07;;;;;;;10.82;3.33;;;;;;;;;;4954759;29;20765;-63
2023/03/20 11:21:32;;;;;;;9.60;4.85;;;;;;;;;;4954376;29;20234;-62
2023/03/20 11:23:58;;;;;;;10.68;3.45;;;;;;;;;;4938048;29;20257;-63
2023/03/20 11:26:42;;;;;;;10.50;3.65;;;;;;;;;;4959582;28;20214;-62
2023/03/20 11:29:10;;;;;;;10.50;3.30;;;;;;;;;;4973097;28;20218;-62
2023/03/20 11:31:36;;;;;;;8.98;3.78;;;;;;;;;;4938291;29;20355;-62
2023/03/20 11:34:05;;;;;;;9.50;3.75;;;;;;;;;;4954586;29;20211;-62
2023/03/20 11:36:33;;;;;;;9.48;3.80;;;;;;;;;;4954350;29;20222;-62
2023/03/20 11:39:05;;;;;;;8.82;3.78;;;;;;;;;;4961536;28;20210;-62
2023/03/20 11:41:30;;;;;;;11.57;3.55;;;;;;;;;;4972928;28;20214;-62
2023/03/20 11:43:56;;;;;;;19.63;10.35;;;;;;;;;;4974229;28;20220;-62
2023/03/20 11:46:22;;;;;;;10.25;3.70;;;;;;;;;;4973528;28;20610;-62
2023/03/20 11:49:00;;;;;;;9.57;3.53;;;;;;;;;;4956054;28;20225;-62
2023/03/20 11:51:25;;;;;;;10.75;3.85;;;;;;;;;;4956407;28;20312;-63
2023/03/20 11:53:55;;;;;;;11.13;3.65;;;;;;;;;;4957069;28;20635;-62
2023/03/20 11:56:21;;;;;;;10.02;3.63;;;;;;;;;;4972641;28;20218;-62
2023/03/20 11:58:52;;;;;;;9.30;3.28;;;;;;;;;;4973874;28;20567;-62
2023/03/20 12:01:18;;;;;;;11.07;3.55;;;;;;;;;;4973197;28;20231;-62
2023/03/20 12:03:45;;;;;;;9.05;3.58;;;;;;;;;;4955710;28;20575;-62
2023/03/20 12:06:17;;;;;;;9.95;3.78;;;;;;;;;;4973227;28;20569;-62
2023/03/20 12:08:45;;;;;;;9.27;4.03;;;;;;;;;;4973890;28;20202;-62
2023/03/20 12:11:19;;;;;;;11.90;3.83;;;;;;;;;;4946595;28;20218;-62
2023/03/20 12:13:46;;;;;;;11.68;4.25;;;;;;;;;;4954169;28;20269;-62
2023/03/20 12:16:12;;;;;;;8.40;3.17;;;;;;;;;;4936922;28;20221;-62
2023/03/20 12:18:38;;;;;;;9.18;3.63;;;;;;;;;;4936609;29;20221;-62
2023/03/20 12:21:07;;;;;;;9.02;2.95;;;;;;;;;;4953803;28;20206;-62
2023/03/20 12:23:35;;;;;;;9.93;3.17;;;;;;;;;;4936471;29;20313;-62
2023/03/20 12:26:06;;;;;;;14.55;4.10;;;;;;;;;;4953575;28;20360;-62
2023/03/20 12:28:39;;;;;;;9.75;3.97;;;;;;;;;;4953413;28;20261;-62
2023/03/20 12:31:07;;;;;;;10.73;3.75;;;;;;;;;;4967265;28;20798;-62
2023/03/20 12:33:37;;;;;;;9.93;3.83;;;;;;;;;;4956057;28;20304;-63
2023/03/20 12:36:03;;;;;;;11.40;3.88;;;;;;;;;;4955537;28;20234;-62
2023/03/20 12:38:29;;;;;;;9.15;3.83;;;;;;;;;;4969525;28;20214;-62
2023/03/20 12:40:57;;;;;;;11.75;3.55;;;;;;;;;;4953735;29;20235;-62
2023/03/20 12:43:24;;;;;;;8.75;3.95;;;;;;;;;;4935950;29;20678;-62
2023/03/20 12:45:55;;;;;;;10.75;4.03;;;;;;;;;;4953139;29;20219;-62
2023/03/20 12:48:30;;;;;;;10.80;4.40;;;;;;;;;;4936095;29;20226;-62
2023/03/20 12:50:58;;;;;;;10.10;4.20;;;;;;;;;;4953515;29;20674;-62
2023/03/20 12:53:23;;;;;;;12.93;4.47;;;;;;;;;;4935037;29;20222;-62
2023/03/20 12:55:49;;;;;;;13.45;4.90;;;;;;;;;;4953759;29;20373;-62
2023/03/20 12:58:26;;;;;;;15.63;4.85;;;;;;;;;;4952897;29;20221;-62
2023/03/20 13:00:51;;;;;;;12.38;5.43;;;;;;;;;;4935561;29;20218;-62
2023/03/20 13:03:16;;;;;;;12.52;5.00;;;;;;;;;;4952873;29;20218;-62
2023/03/20 13:06:01;;;;;;;13.60;5.20;;;;;;;;;;4935937;29;20289;-62
2023/03/20 13:08:28;;;;;;;16.08;5.38;;;;;;;;;;4952985;29;20214;-62
2023/03/20 13:10:56;;;;;;;12.45;5.45;;;;;;;;;;4956823;28;20236;-62
2023/03/20 13:13:37;;;;;;;13.73;5.50;;;;;;;;;;4934598;29;20239;-62
2023/03/20 13:16:03;;;;;;;13.40;5.38;;;;;;;;;;4952626;29;20218;-62
2023/03/20 13:18:36;;;;;;;19.30;6.47;;;;;;;;;;4953161;29;20293;-62
2023/03/20 13:21:03;;;;;;;16.23;5.97;;;;;;;;;;4934742;29;20215;-62
2023/03/20 13:23:28;;;;;;;17.23;5.80;;;;;;;;;;4953073;29;20210;-62
2023/03/20 13:25:57;;;;;;;16.80;5.63;;;;;;;;;;4954232;28;20214;-62
2023/03/20 13:28:26;;;;;;;14.40;6.07;;;;;;;;;;4970818;28;20214;-62
2023/03/20 13:30:56;;;;;;;15.20;6.05;;;;;;;;;;4941542;29;20319;-62
2023/03/20 13:33:35;;;;;;;16.83;6.63;;;;;;;;;;4934987;29;20257;-62
2023/03/20 13:36:03;;;;;;;16.05;6.10;;;;;;;;;;4934726;29;20234;-62
2023/03/20 13:38:29;;;;;;;15.25;6.03;;;;;;;;;;4938162;28;20210;-62
2023/03/20 13:40:57;;;;;;;14.50;5.97;;;;;;;;;;4954063;28;20676;-62
2023/03/20 13:43:26;;;;;;;21.45;7.35;;;;;;;;;;4954049;28;20266;-62
2023/03/20 13:45:55;;;;;;;14.52;6.38;;;;;;;;;;4954685;28;20692;-62
2023/03/20 13:48:29;;;;;;;16.90;6.38;;;;;;;;;;4970828;28;22460;-62
2023/03/20 13:51:05;;;;;;;15.05;5.78;;;;;;;;;;4971916;28;20210;-62
2023/03/20 13:53:34;;;;;;;17.55;6.15;;;;;;;;;;4954243;28;20221;-62
2023/03/20 13:56:03;;;;;;;15.75;5.72;;;;;;;;;;4971239;28;20218;-62
2023/03/20 13:58:42;;;;;;;15.25;6.55;;;;;;;;;;4971309;28;20719;-62
2023/03/20 14:01:11;;;;;;;19.42;6.18;;;;;;;;;;4953791;28;20240;-62
2023/03/20 14:03:37;;;;;;;15.65;6.43;;;;;;;;;;4947412;28;20210;-62
2023/03/20 14:06:21;;;;;;;15.70;6.38;;;;;;;;;;4947064;28;20210;-62
2023/03/20 14:08:47;;;;;;;19.27;6.93;;;;;;;;;;4971471;28;20405;-62
2023/03/20 14:11:19;;;;;;;15.27;5.88;;;;;;;;;;4944138;28;20671;-62
2023/03/20 14:13:51;;;;;;;18.50;6.57;;;;;;;;;;4952250;29;20227;-62
2023/03/20 14:16:17;;;;;;;17.73;7.55;;;;;;;;;;4950103;28;20207;-62
2023/03/20 14:18:43;;;;;;;18.13;7.00;;;;;;;;;;4969051;28;20213;-62
2023/03/20 14:21:10;;;;;;;14.38;7.50;;;;;;;;;;4953381;28;20217;-62
2023/03/20 14:23:36;;;;;;;17.25;6.63;;;;;;;;;;4970783;28;20304;-62
2023/03/20 14:26:03;;;;;;;16.50;6.65;;;;;;;;;;4965602;28;20206;-62
2023/03/20 14:28:32;;;;;;;17.55;7.47;;;;;;;;;;4965464;28;20587;-62